createdAt,value
2022-11-24T00:01:13.272Z,99.90
2022-11-24T00:03:41.293Z,99.90
2022-11-24T00:06:12.542Z,99.90
2022-11-24T00:08:42.790Z,99.90
2022-11-24T00:11:12.570Z,99.90
2022-11-24T00:13:41.011Z,99.90
2022-11-24T00:16:12.074Z,99.90
2022-11-24T00:18:41.009Z,99.90
2022-11-24T00:21:11.093Z,99.90
2022-11-24T00:23:39.540Z,99.90
2022-11-24T00:26:09.582Z,99.90
2022-11-24T00:28:38.906Z,99.90
2022-11-24T00:31:17.629Z,99.90
2022-11-24T00:33:46.607Z,99.90
2022-11-24T00:36:16.766Z,99.90
2022-11-24T00:38:45.140Z,99.90
2022-11-24T00:41:13.702Z,99.90
2022-11-24T00:43:41.655Z,99.90
2022-11-24T00:46:10.866Z,99.90
2022-11-24T00:48:38.880Z,99.90
2022-11-24T00:51:08.917Z,99.90
2022-11-24T00:53:38.299Z,99.90
2022-11-24T00:56:07.256Z,99.90
2022-11-24T00:58:36.118Z,99.90
2022-11-24T01:01:06.262Z,99.90
2022-11-24T01:03:34.864Z,99.90
2022-11-24T01:06:05.665Z,99.90
2022-11-24T01:08:33.706Z,99.90
2022-11-24T01:11:23.702Z,99.90
2022-11-24T01:13:54.105Z,99.90
2022-11-24T01:16:23.749Z,99.90
2022-11-24T01:18:52.375Z,99.90
2022-11-24T01:21:21.119Z,99.90
2022-11-24T01:23:49.336Z,99.90
2022-11-24T01:26:21.075Z,99.90
2022-11-24T01:28:49.055Z,99.90
2022-11-24T01:31:17.309Z,99.90
2022-11-24T01:33:45.333Z,99.90
2022-11-24T01:36:13.342Z,99.90
2022-11-24T01:38:41.315Z,99.90
2022-11-24T01:41:13.314Z,99.90
2022-11-24T01:43:43.750Z,99.90
2022-11-24T01:46:18.273Z,99.90
2022-11-24T01:48:49.627Z,99.90
2022-11-24T01:51:23.513Z,99.90
2022-11-24T01:53:56.446Z,99.90
2022-11-24T01:56:25.221Z,99.90
2022-11-24T01:58:58.818Z,99.90
2022-11-24T02:01:26.968Z,99.90
2022-11-24T02:03:55.016Z,99.90
2022-11-24T02:06:27.589Z,99.90
2022-11-24T02:09:00.723Z,99.90
2022-11-24T02:11:31.757Z,99.90
2022-11-24T02:14:01.800Z,99.90
2022-11-24T02:16:30.867Z,99.90
2022-11-24T02:18:58.740Z,99.90
2022-11-24T02:21:26.663Z,99.90
2022-11-24T02:24:02.857Z,99.90
2022-11-24T02:26:41.203Z,99.90
2022-11-24T02:29:10.329Z,99.90
2022-11-24T02:31:38.663Z,99.90
2022-11-24T02:34:06.639Z,99.90
2022-11-24T02:36:34.618Z,99.90
2022-11-24T02:39:02.578Z,99.90
2022-11-24T02:41:30.680Z,99.90
2022-11-24T02:44:02.842Z,99.90
2022-11-24T02:46:30.810Z,99.90
2022-11-24T02:48:58.888Z,99.90
2022-11-24T02:51:26.830Z,99.90
2022-11-24T02:53:54.710Z,99.90
2022-11-24T02:56:22.841Z,99.90
2022-11-24T02:58:50.867Z,99.90
2022-11-24T03:01:20.303Z,99.90
2022-11-24T03:03:48.323Z,99.90
2022-11-24T03:06:16.349Z,99.90
2022-11-24T03:08:44.228Z,99.90
2022-11-24T03:11:12.735Z,99.90
2022-11-24T03:13:40.718Z,99.90
2022-11-24T03:16:10.282Z,99.90
2022-11-24T03:18:39.714Z,99.90
2022-11-24T03:21:08.229Z,99.90
2022-11-24T03:23:36.223Z,99.90
2022-11-24T03:26:11.639Z,99.90
2022-11-24T03:28:39.933Z,99.90
2022-11-24T03:31:09.681Z,99.90
2022-11-24T03:33:39.173Z,99.90
2022-11-24T03:36:10.136Z,99.90
2022-11-24T03:38:38.120Z,99.90
2022-11-24T03:41:06.522Z,99.90
2022-11-24T03:43:37.814Z,99.90
2022-11-24T03:46:08.974Z,99.90
2022-11-24T03:48:36.996Z,99.90
2022-11-24T03:51:06.809Z,99.90
2022-11-24T03:53:35.418Z,99.90
2022-11-24T03:56:03.812Z,99.90
2022-11-24T03:58:32.029Z,99.90
2022-11-24T04:01:00.315Z,99.90
2022-11-24T04:03:28.181Z,99.90
2022-11-24T04:05:56.132Z,99.90
2022-11-24T04:08:25.593Z,99.90
2022-11-24T04:10:55.186Z,99.90
2022-11-24T04:13:24.198Z,99.90
2022-11-24T04:15:52.722Z,99.90
2022-11-24T04:18:20.933Z,99.90
2022-11-24T04:20:50.835Z,99.90
2022-11-24T04:23:19.643Z,99.90
2022-11-24T04:25:48.966Z,99.90
2022-11-24T04:28:16.840Z,99.90
2022-11-24T04:30:45.386Z,99.90
2022-11-24T04:33:13.893Z,99.90
2022-11-24T04:35:41.958Z,99.90
2022-11-24T04:38:09.945Z,99.90
2022-11-24T04:40:38.397Z,99.90
2022-11-24T04:43:07.731Z,99.90
2022-11-24T04:45:35.649Z,99.90
2022-11-24T04:48:03.536Z,99.90
2022-11-24T04:50:31.973Z,99.90
2022-11-24T04:52:59.873Z,99.90
2022-11-24T04:55:27.768Z,99.90
2022-11-24T04:57:56.011Z,99.90
2022-11-24T05:00:25.305Z,99.90
2022-11-24T05:02:53.204Z,99.90
2022-11-24T05:05:21.170Z,99.90
2022-11-24T05:07:49.060Z,99.90
2022-11-24T05:10:35.104Z,99.90
2022-11-24T05:13:04.336Z,99.90
2022-11-24T05:15:34.489Z,99.90
2022-11-24T05:18:06.478Z,99.90
2022-11-24T05:20:34.441Z,99.90
2022-11-24T05:23:04.139Z,99.90
2022-11-24T05:25:33.019Z,99.90
2022-11-24T05:28:02.358Z,99.90
2022-11-24T05:30:30.492Z,99.90
2022-11-24T05:33:00.114Z,99.90
2022-11-24T05:35:28.018Z,99.90
2022-11-24T05:37:55.997Z,99.90
2022-11-24T05:40:24.010Z,99.90
2022-11-24T05:42:52.044Z,99.90
2022-11-24T05:45:21.751Z,99.90
2022-11-24T05:47:51.051Z,99.90
2022-11-24T05:50:21.891Z,99.90
2022-11-24T05:52:50.201Z,99.90
2022-11-24T05:55:20.011Z,99.90
2022-11-24T05:57:47.912Z,99.90
2022-11-24T06:00:18.163Z,99.90
2022-11-24T06:02:46.299Z,99.90
2022-11-24T06:05:14.375Z,99.90
2022-11-24T06:07:43.788Z,99.90
2022-11-24T06:10:11.752Z,99.90
2022-11-24T06:12:39.651Z,99.90
2022-11-24T06:15:08.440Z,99.90
2022-11-24T06:17:36.446Z,99.90
2022-11-24T06:20:05.304Z,99.90
2022-11-24T06:22:33.406Z,99.90
2022-11-24T06:25:03.033Z,99.90
2022-11-24T06:27:31.148Z,99.90
2022-11-24T06:29:59.084Z,99.90
2022-11-24T06:32:27.379Z,99.90
2022-11-24T06:34:55.279Z,99.90
2022-11-24T06:37:23.421Z,99.90
2022-11-24T06:39:51.322Z,99.90
2022-11-24T06:42:21.550Z,99.90
2022-11-24T06:44:49.718Z,99.90
2022-11-24T06:47:17.766Z,99.90
2022-11-24T06:49:45.779Z,99.90
2022-11-24T06:52:13.763Z,99.90
2022-11-24T06:54:41.765Z,99.90
2022-11-24T06:57:09.839Z,99.90
2022-11-24T06:59:39.184Z,99.90
2022-11-24T07:02:07.586Z,99.90
2022-11-24T07:04:35.933Z,99.90
2022-11-24T07:07:04.183Z,99.90
2022-11-24T07:09:32.144Z,99.90
2022-11-24T07:12:00.173Z,99.90
2022-11-24T07:14:28.144Z,99.90
2022-11-24T07:16:57.657Z,99.90
2022-11-24T07:19:25.578Z,99.90
2022-11-24T07:21:53.681Z,99.90
2022-11-24T07:24:21.629Z,99.90
2022-11-24T07:26:49.599Z,99.90
2022-11-24T07:29:19.057Z,99.90
2022-11-24T07:31:47.135Z,99.90
2022-11-24T07:34:16.574Z,99.90
2022-11-24T07:36:45.129Z,99.90
2022-11-24T07:39:13.160Z,99.90
2022-11-24T07:41:41.177Z,99.90
2022-11-24T07:44:09.391Z,99.90
2022-11-24T07:46:37.360Z,99.90
2022-11-24T07:49:05.363Z,99.90
2022-11-24T07:51:36.830Z,99.90
2022-11-24T07:54:04.909Z,99.90
2022-11-24T07:56:32.948Z,99.90
2022-11-24T07:59:01.408Z,99.90
2022-11-24T08:01:29.650Z,99.90
2022-11-24T08:03:57.752Z,99.90
2022-11-24T08:06:30.279Z,99.90
2022-11-24T08:09:01.970Z,99.90
2022-11-24T08:11:31.599Z,99.90
2022-11-24T08:13:59.897Z,99.90
2022-11-24T08:16:28.095Z,99.90
2022-11-24T08:18:57.290Z,99.90
2022-11-24T08:21:25.997Z,99.90
2022-11-24T08:23:56.975Z,99.90
2022-11-24T08:26:27.607Z,99.90
2022-11-24T08:28:57.615Z,99.90
2022-11-24T08:31:32.551Z,99.90
2022-11-24T08:34:01.210Z,99.90
2022-11-24T08:36:29.504Z,99.90
2022-11-24T08:38:58.930Z,99.90
2022-11-24T08:41:30.053Z,99.90
2022-11-24T08:43:58.666Z,99.90
2022-11-24T08:46:27.069Z,99.90
2022-11-24T08:48:57.847Z,99.90
2022-11-24T08:51:27.949Z,99.90
2022-11-24T08:53:58.342Z,99.90
2022-11-24T08:56:29.097Z,99.90
2022-11-24T08:58:58.422Z,99.90
2022-11-24T09:01:27.732Z,99.90
2022-11-24T09:03:56.497Z,99.90
2022-11-24T09:06:26.669Z,99.90
2022-11-24T09:09:03.395Z,99.90
2022-11-24T09:11:35.042Z,99.90
2022-11-24T09:14:03.387Z,99.90
2022-11-24T09:16:33.971Z,99.90
2022-11-24T09:19:03.807Z,99.90
2022-11-24T09:21:34.250Z,99.90
2022-11-24T09:24:02.647Z,99.90
2022-11-24T09:26:33.611Z,99.90
2022-11-24T09:29:03.365Z,99.90
2022-11-24T09:31:34.543Z,99.90
2022-11-24T09:34:03.653Z,99.90
2022-11-24T09:36:32.446Z,99.90
2022-11-24T09:39:00.986Z,99.90
2022-11-24T09:41:42.684Z,99.90
2022-11-24T09:44:33.727Z,99.90
2022-11-24T09:47:11.135Z,99.90
2022-11-24T09:49:51.220Z,99.90
2022-11-24T09:52:24.074Z,99.90
2022-11-24T09:54:57.089Z,99.90
2022-11-24T09:57:35.857Z,99.90
2022-11-24T10:00:14.737Z,99.90
2022-11-24T10:02:43.095Z,99.90
2022-11-24T10:05:13.695Z,99.90
2022-11-24T10:07:49.868Z,99.90
2022-11-24T10:10:25.059Z,99.90
2022-11-24T10:13:21.347Z,99.10
2022-11-24T10:16:00.430Z,99.90
2022-11-24T10:18:38.643Z,97.10
2022-11-24T10:21:25.263Z,95.80
2022-11-24T10:24:10.053Z,92.80
2022-11-24T10:26:39.693Z,79.40
2022-11-24T10:29:21.591Z,79.20
2022-11-24T10:31:54.303Z,89.10
2022-11-24T10:34:28.379Z,87.00
2022-11-24T10:37:02.226Z,79.40
2022-11-24T10:39:36.673Z,86.40
2022-11-24T10:42:13.583Z,87.90
2022-11-24T10:44:44.255Z,87.20
2022-11-24T10:47:23.138Z,90.80
2022-11-24T10:50:01.324Z,87.00
2022-11-24T10:52:30.369Z,94.30
2022-11-24T10:54:59.997Z,91.80
2022-11-24T10:57:30.027Z,88.00
2022-11-24T10:59:59.660Z,87.00
2022-11-24T11:02:31.480Z,92.60
2022-11-24T11:04:59.606Z,94.20
2022-11-24T11:07:28.368Z,91.30
2022-11-24T11:10:21.201Z,82.80
2022-11-24T11:12:50.136Z,81.30
2022-11-24T11:15:32.512Z,77.70
2022-11-24T11:18:01.748Z,79.30
2022-11-24T11:20:42.488Z,75.60
2022-11-24T11:23:20.922Z,83.90
2022-11-24T11:25:49.115Z,82.50
2022-11-24T11:28:27.608Z,81.70
2022-11-24T11:31:19.915Z,75.40
2022-11-24T11:34:04.304Z,86.20
2022-11-24T11:36:37.402Z,72.10
2022-11-24T11:39:05.842Z,69.00
2022-11-24T11:41:37.565Z,67.50
2022-11-24T11:44:22.819Z,70.00
2022-11-24T11:46:55.767Z,74.70
2022-11-24T11:49:24.255Z,71.90
2022-11-24T11:52:09.850Z,78.00
2022-11-24T11:54:57.919Z,70.70
2022-11-24T11:57:39.151Z,67.60
2022-11-24T12:00:14.459Z,63.80
2022-11-24T12:03:19.422Z,60.10
2022-11-24T12:05:53.592Z,70.40
2022-11-24T12:08:49.495Z,60.40
2022-11-24T12:11:30.375Z,58.60
2022-11-24T12:14:08.657Z,58.90
2022-11-24T12:16:46.740Z,59.00
2022-11-24T12:19:35.471Z,54.60
2022-11-24T12:22:10.601Z,52.00
2022-11-24T12:24:49.653Z,51.00
2022-11-24T12:27:28.078Z,55.70
2022-11-24T12:30:14.705Z,55.80
2022-11-24T12:33:12.932Z,56.90
2022-11-24T12:35:44.857Z,61.80
2022-11-24T12:38:29.235Z,61.00
2022-11-24T12:41:40.449Z,66.90
2022-11-24T12:44:19.966Z,69.50
2022-11-24T12:46:57.895Z,68.30
2022-11-24T12:49:35.744Z,69.40
2022-11-24T12:52:15.264Z,70.20
2022-11-24T12:54:44.561Z,63.20
2022-11-24T12:57:21.002Z,60.70
2022-11-24T12:59:58.445Z,61.00
2022-11-24T13:02:37.560Z,63.20
2022-11-24T13:05:14.809Z,65.20
2022-11-24T13:07:48.069Z,61.80
2022-11-24T13:10:55.890Z,56.40
2022-11-24T13:13:19.962Z,55.20
2022-11-24T13:19:08.589Z,55.70
2022-11-24T13:22:17.350Z,56.40
2022-11-24T13:24:47.100Z,60.00
2022-11-24T13:27:40.754Z,57.30
2022-11-24T13:30:54.879Z,58.00
2022-11-24T13:33:39.398Z,51.70
2022-11-24T13:36:35.648Z,56.70
2022-11-24T13:39:06.251Z,53.10
2022-11-24T13:42:41.089Z,54.30
2022-11-24T13:45:00.899Z,57.50
2022-11-24T13:47:43.545Z,61.70
2022-11-24T13:50:25.665Z,59.90
2022-11-24T13:53:01.461Z,57.40
2022-11-24T13:55:38.876Z,58.20
2022-11-24T13:58:35.566Z,64.60
2022-11-24T14:01:22.881Z,64.10
2022-11-24T14:07:05.507Z,63.90
2022-11-24T14:09:43.968Z,63.60
2022-11-24T14:12:18.034Z,69.70
2022-11-24T14:14:49.093Z,68.70
2022-11-24T14:17:20.802Z,70.90
2022-11-24T14:19:50.197Z,68.00
2022-11-24T14:22:21.120Z,67.90
2022-11-24T14:24:54.980Z,68.80
2022-11-24T14:27:29.384Z,69.10
2022-11-24T14:30:00.712Z,70.30
2022-11-24T14:32:28.980Z,70.40
2022-11-24T14:34:57.648Z,70.60
2022-11-24T14:37:25.787Z,69.80
2022-11-24T14:39:54.813Z,67.10
2022-11-24T14:42:27.215Z,65.10
2022-11-24T14:44:59.320Z,64.00
2022-11-24T14:47:36.268Z,62.50
2022-11-24T14:50:11.434Z,59.00
2022-11-24T14:52:46.215Z,56.30
2022-11-24T14:55:26.098Z,53.20
2022-11-24T14:58:01.841Z,53.60
2022-11-24T15:00:33.944Z,57.60
2022-11-24T15:03:16.939Z,59.90
2022-11-24T15:05:54.229Z,62.90
2022-11-24T15:08:23.507Z,71.00
2022-11-24T15:10:57.541Z,76.90
2022-11-24T15:13:26.514Z,81.00
2022-11-24T15:16:02.727Z,90.30
2022-11-24T15:18:40.382Z,93.70
2022-11-24T15:21:11.810Z,99.60
2022-11-24T15:23:45.715Z,99.90
2022-11-24T15:26:36.680Z,99.90
2022-11-24T15:29:08.149Z,99.90
2022-11-24T15:31:38.134Z,99.90
2022-11-24T15:34:06.757Z,99.90
2022-11-24T15:36:35.263Z,99.90
2022-11-24T15:39:03.323Z,99.90
2022-11-24T15:41:33.669Z,99.90
2022-11-24T15:44:01.780Z,99.90
2022-11-24T15:46:37.719Z,99.90
2022-11-24T15:49:08.022Z,99.90
2022-11-24T15:51:39.900Z,99.90
2022-11-24T15:54:14.719Z,99.90
2022-11-24T15:56:44.453Z,99.90
2022-11-24T15:59:20.214Z,99.90
2022-11-24T16:01:49.780Z,99.90
2022-11-24T16:04:19.771Z,99.90
2022-11-24T16:06:48.010Z,99.90
2022-11-24T16:09:17.821Z,99.90
2022-11-24T16:11:47.056Z,99.90
2022-11-24T16:14:15.341Z,99.90
2022-11-24T16:16:43.748Z,99.90
2022-11-24T16:19:12.390Z,99.90
2022-11-24T16:21:42.094Z,99.90
2022-11-24T16:24:10.665Z,99.90
2022-11-24T16:26:39.237Z,99.90
2022-11-24T16:29:07.637Z,99.90
2022-11-24T16:31:36.327Z,99.90
2022-11-24T16:34:04.446Z,99.90
2022-11-24T16:36:32.848Z,99.90
2022-11-24T16:39:02.681Z,99.90
2022-11-24T16:41:31.066Z,99.90
2022-11-24T16:44:00.969Z,99.90
2022-11-24T16:46:29.237Z,99.90
2022-11-24T16:49:01.202Z,99.90
2022-11-24T16:51:34.438Z,99.90
2022-11-24T16:54:06.171Z,99.90
2022-11-24T16:56:35.756Z,99.90
2022-11-24T16:59:04.739Z,99.90
2022-11-24T17:01:35.071Z,99.90
2022-11-24T17:04:05.062Z,99.90
2022-11-24T17:06:35.576Z,99.90
2022-11-24T17:09:05.774Z,99.90
2022-11-24T17:11:33.993Z,99.90
2022-11-24T17:14:03.150Z,99.90
2022-11-24T17:16:31.815Z,99.90
2022-11-24T17:19:00.226Z,99.90
2022-11-24T17:21:29.201Z,99.90
2022-11-24T17:23:58.936Z,99.90
2022-11-24T17:26:30.836Z,99.90
2022-11-24T17:28:59.309Z,99.90
2022-11-24T17:31:29.803Z,99.90
2022-11-24T17:34:00.850Z,99.90
2022-11-24T17:36:31.151Z,99.90
2022-11-24T17:39:00.451Z,99.90
2022-11-24T17:41:32.721Z,99.90
2022-11-24T17:44:01.181Z,99.90
2022-11-24T17:46:30.986Z,99.90
2022-11-24T17:48:59.664Z,99.90
2022-11-24T17:51:28.251Z,99.90
2022-11-24T17:53:57.950Z,99.90
2022-11-24T17:56:28.378Z,99.90
2022-11-24T17:59:00.110Z,99.90
2022-11-24T18:01:33.184Z,99.90
2022-11-24T18:04:01.490Z,99.90
2022-11-24T18:06:30.855Z,99.90
2022-11-24T18:08:59.445Z,99.90
2022-11-24T18:11:31.663Z,99.90
2022-11-24T18:14:03.827Z,99.90
2022-11-24T18:16:34.429Z,99.90
2022-11-24T18:19:09.894Z,99.90
2022-11-24T18:21:39.407Z,99.90
2022-11-24T18:24:08.177Z,99.90
2022-11-24T18:26:36.647Z,99.90
2022-11-24T18:29:06.561Z,99.90
2022-11-24T18:31:35.805Z,99.90
2022-11-24T18:34:05.353Z,99.90
2022-11-24T18:36:36.192Z,99.90
2022-11-24T18:39:07.554Z,99.90
2022-11-24T18:41:36.214Z,99.90
2022-11-24T18:44:08.680Z,99.90
2022-11-24T18:46:39.262Z,99.90
2022-11-24T18:49:08.433Z,99.90
2022-11-24T18:51:36.705Z,99.90
2022-11-24T18:54:05.656Z,99.90
2022-11-24T18:56:34.229Z,99.90
2022-11-24T18:59:02.344Z,99.90
2022-11-24T19:01:31.318Z,99.90
2022-11-24T19:04:03.539Z,99.90
2022-11-24T19:06:33.340Z,99.90
2022-11-24T19:09:03.122Z,99.90
2022-11-24T19:11:33.822Z,99.90
2022-11-24T19:14:03.004Z,99.90
2022-11-24T19:16:31.143Z,99.90
2022-11-24T19:19:02.722Z,99.90
2022-11-24T19:21:32.377Z,99.90
2022-11-24T19:24:05.057Z,99.90
2022-11-24T19:26:35.086Z,99.90
2022-11-24T19:29:04.050Z,99.90
2022-11-24T19:31:32.632Z,99.90
2022-11-24T19:34:03.695Z,99.90
2022-11-24T19:36:31.926Z,99.90
2022-11-24T19:39:00.253Z,99.90
2022-11-24T19:41:30.140Z,99.90
2022-11-24T19:43:58.960Z,99.90
2022-11-24T19:46:29.732Z,99.90
2022-11-24T19:49:00.788Z,99.90
2022-11-24T19:51:32.209Z,99.90
2022-11-24T19:54:01.070Z,99.90
2022-11-24T19:56:31.320Z,99.90
2022-11-24T19:58:59.374Z,99.90
2022-11-24T20:01:29.121Z,99.90
2022-11-24T20:03:59.213Z,99.90
2022-11-24T20:06:28.163Z,99.90
2022-11-24T20:08:58.513Z,99.90
2022-11-24T20:11:27.023Z,99.90
2022-11-24T20:13:55.077Z,99.90
2022-11-24T20:16:26.547Z,99.90
2022-11-24T20:18:56.396Z,99.90
2022-11-24T20:21:28.451Z,99.90
2022-11-24T20:23:59.697Z,99.90
2022-11-24T20:26:30.021Z,99.90
2022-11-24T20:28:59.703Z,99.90
2022-11-24T20:31:30.808Z,99.90
2022-11-24T20:33:58.903Z,99.90
2022-11-24T20:36:29.551Z,99.90
2022-11-24T20:39:01.173Z,99.90
2022-11-24T20:41:31.693Z,99.90
2022-11-24T20:44:01.275Z,99.90
2022-11-24T20:46:31.720Z,99.90
2022-11-24T20:49:00.276Z,99.90
2022-11-24T20:51:30.488Z,99.90
2022-11-24T20:54:01.625Z,99.90
2022-11-24T20:56:31.388Z,99.90
2022-11-24T20:59:00.379Z,99.90
2022-11-24T21:01:30.701Z,99.90
2022-11-24T21:04:00.391Z,99.90
2022-11-24T21:06:30.823Z,99.90
2022-11-24T21:09:03.660Z,99.90
2022-11-24T21:11:32.302Z,99.90
2022-11-24T21:14:00.340Z,99.90
2022-11-24T21:16:30.553Z,99.90
2022-11-24T21:19:00.306Z,99.90
2022-11-24T21:21:34.443Z,99.90
2022-11-24T21:24:05.223Z,99.90
2022-11-24T21:26:35.790Z,99.90
2022-11-24T21:29:03.724Z,99.90
2022-11-24T21:31:31.928Z,99.90
2022-11-24T21:34:00.075Z,99.90
2022-11-24T21:36:28.034Z,99.90
2022-11-24T21:38:57.437Z,99.90
2022-11-24T21:41:29.339Z,99.90
2022-11-24T21:43:57.341Z,99.90
2022-11-24T21:46:26.164Z,99.90
2022-11-24T21:48:55.078Z,99.90
2022-11-24T21:51:23.119Z,99.90
2022-11-24T21:53:51.163Z,99.90
2022-11-24T21:56:21.101Z,99.90
2022-11-24T21:58:52.237Z,99.90
2022-11-24T22:01:21.604Z,99.90
2022-11-24T22:03:50.009Z,99.90
2022-11-24T22:06:19.195Z,99.90
2022-11-24T22:08:47.798Z,99.90
2022-11-24T22:11:18.552Z,99.90
2022-11-24T22:13:46.928Z,99.90
2022-11-24T22:16:18.158Z,99.90
2022-11-24T22:18:47.202Z,99.90
2022-11-24T22:21:16.630Z,99.90
2022-11-24T22:23:44.809Z,99.90
2022-11-24T22:26:14.385Z,99.90
2022-11-24T22:28:42.893Z,99.90
2022-11-24T22:31:13.049Z,99.90
2022-11-24T22:33:43.669Z,99.90
2022-11-24T22:36:12.879Z,99.90
2022-11-24T22:38:41.535Z,99.90
2022-11-24T22:41:11.557Z,99.90
2022-11-24T22:43:41.390Z,99.90
2022-11-24T22:46:11.199Z,99.90
2022-11-24T22:48:39.835Z,99.90
2022-11-24T22:51:11.567Z,99.90
2022-11-24T22:53:40.125Z,99.90
2022-11-24T22:56:11.217Z,99.90
2022-11-24T22:58:40.137Z,99.90
2022-11-24T23:01:09.720Z,99.90
2022-11-24T23:03:38.301Z,99.90
2022-11-24T23:06:11.882Z,99.90
2022-11-24T23:08:40.302Z,99.90
2022-11-24T23:11:11.012Z,99.90
2022-11-24T23:13:39.722Z,99.90
2022-11-24T23:16:10.233Z,99.90
2022-11-24T23:18:38.777Z,99.90
2022-11-24T23:21:11.558Z,99.90
2022-11-24T23:23:40.066Z,99.90
2022-11-24T23:26:10.616Z,99.90
2022-11-24T23:28:39.006Z,99.90
2022-11-24T23:31:09.074Z,99.90
2022-11-24T23:33:37.152Z,99.90
2022-11-24T23:36:08.619Z,99.90
2022-11-24T23:38:38.588Z,99.90
2022-11-24T23:41:10.632Z,99.90
2022-11-24T23:43:40.895Z,99.90
2022-11-24T23:46:11.473Z,99.90
2022-11-24T23:48:40.748Z,99.90
2022-11-24T23:51:11.505Z,99.90
2022-11-24T23:53:41.473Z,99.90
2022-11-24T23:56:12.112Z,99.90
2022-11-24T23:58:40.241Z,99.90
